YBF weather

Bamfield Seaplane Base
Bamfield, British Columbia, Canada

Public forecast

Using degrees Celsius for public forecast. Weather courtesy of forecast.io.

METAR (pilot weather report)

Closest report is Tofino / Long Beach Airport, 29.3 nm (54.3 km) WNW. Retrieved 2019/07/23 15:00 UTC (25 minutes ago):

CYAZ 231500Z 29007KT 15SM FEW006 BKN038 16/14 A3008 RMK CU1SC6 SLP189

TAF (pilot weather forecast)

Closest forecast is Tofino / Long Beach Airport, 29.3 nm (54.3 km) WNW. Retrieved 2019/07/23 15:00 UTC (25 minutes ago):

TAF CYAZ 231438Z 2315/2401 28006KT P6SM SCT006 BKN040 TEMPO 2315/2318 BKN006 BKN040 FM231800 28010KT P6SM SCT012 BKN040 FM232000 28012KT P6SM SCT040 RMK NXT FCST BY 231800Z